Hinton, OK (73047)

12:49 PM CDT on April 25, 2017 (GMT -0500)
West Central Overhead Door | | Change Station

Elev 1611 ft 35.38 °N, 98.23 °W | Updated 12 seconds ago

Clear
Clear
80.8 °F
Feels Like 79 °F
N
17.5
Wind Variable Wind from SSW
Gusts 19.9 mph

Today
High -- | Low -- °F
--% Chance of Precip.
Yesterday
High -- | Low -- °F
Precip. -- in
Pressure 29.39 in
Visibility 10.0 miles
Clouds Clear
Heat Index 79 °F
Dew Point 36 °F
Humidity 20%
Rainfall 0.00 in
Snow Depth Not available.
6:48 AM 8:15 PM
Waning Crescent, 1% visible
METAR KOJA 251735Z AUTO 19009KT 10SM CLR 27/13 A2939 RMK AO2
Pressure 29.39 in
Visibility 10.0 miles
Clouds Clear
Heat Index 79 °F
Dew Point 36 °F
Humidity 20%
Rainfall 0.00 in
Snow Depth Not available.
6:48 AM 8:15 PM
Waning Crescent, 1% visible
METAR KOJA 251735Z AUTO 19009KT 10SM CLR 27/13 A2939 RMK AO2

Get Severe Weather Alerts

Thanks for signing up!

Be on the lookout for a verification email in your inbox.

You'll start receiving the daily forecast at 8 AM.

×

10-Day Weather Forecast

Almanac

Astronomy

Apr. 25, 2017 Rise Set
Actual Time
Civil Twilight
Nautical Twilight
Astronomical Twilight
Moon
Length of Visible Light
Length of Day
Tomorrow will be .
, % of the Moon is Illuminated

Today's Extremes

State Highs State Lows

Community

WunderPhotos

WunderBlog® & News

Nearby

Air Quality

  Air Quality AQ Index Pollutant
Not available.

Snow Depth

Station Depth Elevation

Earthquake Activity

City Distance Mag. Time & Date
Minimum magnitude displayed is 2.5.

Coastal Water Temperatures

Place Temperature

Stations

Nearby Weather Stations

Station Location Temp. Windchill Dew Point Humidity Wind Precip. Elev Updated Type
                   

Watches & Warnings

There are currently no watches in effect.